Time;durP1;ratioP1;P1;durP2;ratioP2;P2;SDS_P1;SDS_P2;PMS_P1;PMS_P2;Temp;Humidity;BMP_temperature;BMP_pressure;BME280_temperature;BME280_humidity;BME280_pressure;Samples;Min_cycle;Max_cycle;Signal;HPM_P1;HPM_P2
2022/07/13 00:02:22;;;;;;;2.47;0.90;;;19.50;94.90;;;;;;5030225;28;20187;-73
2022/07/13 00:04:47;;;;;;;0.93;0.82;;;19.50;94.90;;;;;;5030868;28;20193;-72
2022/07/13 00:07:13;;;;;;;2.00;0.90;;;19.40;95.20;;;;;;5032005;28;20170;-74
2022/07/13 00:09:38;;;;;;;0.93;0.93;;;19.40;95.30;;;;;;5034710;28;20182;-74
2022/07/13 00:12:04;;;;;;;1.65;0.90;;;19.40;95.60;;;;;;5034187;28;20548;-74
2022/07/13 00:14:30;;;;;;;0.70;0.70;;;19.40;95.80;;;;;;5016226;28;20633;-71
2022/07/13 00:16:55;;;;;;;0.85;0.85;;;19.30;95.90;;;;;;5034180;28;20194;-71
2022/07/13 00:19:21;;;;;;;0.80;0.80;;;19.30;96.10;;;;;;5016386;28;20189;-74
2022/07/13 00:21:47;;;;;;;1.38;0.70;;;19.30;96.20;;;;;;5034388;28;20178;-73
2022/07/13 00:24:14;;;;;;;1.00;1.00;;;19.20;96.40;;;;;;5034276;28;20236;-70
2022/07/13 00:26:39;;;;;;;1.10;1.00;;;19.20;96.50;;;;;;5034303;28;20217;-71
2022/07/13 00:29:05;;;;;;;1.13;1.05;;;19.10;96.60;;;;;;5034143;28;20240;-73
2022/07/13 00:31:30;;;;;;;0.80;0.80;;;19.10;97.00;;;;;;5034094;28;20194;-73
2022/07/13 00:33:56;;;;;;;0.80;0.80;;;19.00;97.20;;;;;;5033658;28;20194;-73
2022/07/13 00:36:21;;;;;;;1.08;0.88;;;19.00;97.40;;;;;;5033872;28;20321;-73
2022/07/13 00:38:48;;;;;;;1.20;1.10;;;19.00;97.50;;;;;;5033702;28;20186;-71
2022/07/13 00:41:13;;;;;;;0.85;0.85;;;18.90;97.70;;;;;;5033896;28;20226;-73
2022/07/13 00:43:38;;;;;;;2.38;0.90;;;18.90;97.90;;;;;;5034287;28;20213;-73
2022/07/13 00:46:04;;;;;;;1.17;1.10;;;18.90;98.10;;;;;;5033918;28;20631;-73
2022/07/13 00:48:30;;;;;;;0.88;0.88;;;18.80;98.10;;;;;;4999805;28;20607;-70
2022/07/13 00:50:55;;;;;;;1.00;1.00;;;18.90;98.30;;;;;;5015997;28;20193;-71
2022/07/13 00:53:23;;;;;;;1.45;0.98;;;18.90;98.40;;;;;;5033518;28;20170;-71
2022/07/13 00:55:49;;;;;;;3.95;1.63;;;18.80;98.40;;;;;;5033668;28;20206;-75
2022/07/13 00:58:15;;;;;;;0.90;0.90;;;18.80;98.60;;;;;;5033699;28;20634;-76
2022/07/13 01:00:40;;;;;;;2.05;1.05;;;18.80;98.50;;;;;;5034044;28;20193;-75
2022/07/13 01:03:06;;;;;;;0.93;0.88;;;18.70;98.80;;;;;;5033254;28;20175;-75
2022/07/13 01:05:31;;;;;;;3.60;1.58;;;18.60;99.10;;;;;;5033714;28;20633;-75
2022/07/13 01:07:57;;;;;;;1.90;1.70;;;18.50;99.40;;;;;;5032314;28;20296;-72
2022/07/13 01:10:24;;;;;;;2.42;1.52;;;18.40;99.70;;;;;;5032933;28;20634;-75
2022/07/13 01:12:50;;;;;;;1.67;1.30;;;18.40;99.90;;;;;;5033361;28;20244;-73
2022/07/13 01:15:16;;;;;;;1.10;1.05;;;18.40;99.90;;;;;;5033621;28;20206;-75
2022/07/13 01:17:42;;;;;;;1.20;1.20;;;18.40;99.90;;;;;;5032774;28;20185;-72
2022/07/13 01:20:09;;;;;;;1.92;1.10;;;18.30;99.90;;;;;;5032513;28;20181;-74
2022/07/13 01:22:41;;;;;;;1.17;1.17;;;18.30;99.90;;;;;;5033561;28;20630;-73
2022/07/13 01:25:08;;;;;;;1.00;1.00;;;18.30;99.90;;;;;;5031791;28;20183;-71
2022/07/13 01:27:36;;;;;;;0.85;0.85;;;18.20;99.90;;;;;;5014940;28;20269;-72
2022/07/13 01:30:03;;;;;;;2.38;1.15;;;18.20;99.90;;;;;;5019382;28;20179;-72
2022/07/13 01:32:29;;;;;;;2.38;1.05;;;18.20;99.90;;;;;;5032885;28;20182;-72
2022/07/13 01:34:54;;;;;;;0.90;0.90;;;18.20;99.90;;;;;;5015196;28;20198;-73
2022/07/13 01:37:20;;;;;;;1.25;1.02;;;18.10;99.90;;;;;;5018337;28;20245;-73
2022/07/13 01:39:46;;;;;;;1.20;1.10;;;18.10;99.90;;;;;;5021995;28;20697;-73
2022/07/13 01:42:11;;;;;;;3.15;1.70;;;18.10;99.90;;;;;;5013635;28;20223;-72
2022/07/13 01:44:37;;;;;;;1.38;1.27;;;18.00;99.90;;;;;;5032586;28;20308;-72
2022/07/13 01:47:09;;;;;;;3.85;1.90;;;18.00;99.90;;;;;;5032117;28;20178;-73
2022/07/13 01:49:36;;;;;;;16.05;5.53;;;18.00;99.90;;;;;;5032029;28;20198;-72
2022/07/13 01:52:01;;;;;;;10.43;4.22;;;18.00;99.90;;;;;;5032919;28;20269;-72
2022/07/13 01:54:27;;;;;;;6.47;2.88;;;18.00;99.90;;;;;;5029610;28;20182;-72
2022/07/13 01:56:52;;;;;;;3.30;1.88;;;18.00;99.90;;;;;;5032103;28;20308;-73
2022/07/13 01:59:18;;;;;;;5.55;2.83;;;17.90;99.90;;;;;;5014122;28;20206;-73
2022/07/13 02:01:44;;;;;;;7.90;3.30;;;17.90;99.90;;;;;;5032210;28;20186;-74
2022/07/13 02:04:10;;;;;;;5.22;2.83;;;17.90;99.90;;;;;;5032011;28;20174;-74
2022/07/13 02:06:36;;;;;;;2.60;2.08;;;17.90;99.90;;;;;;5032654;28;20178;-74
2022/07/13 02:09:03;;;;;;;1.85;1.50;;;17.90;99.90;;;;;;5030772;28;20194;-72
2022/07/13 02:11:28;;;;;;;1.42;1.30;;;17.90;99.90;;;;;;5032318;28;20628;-73
2022/07/13 02:13:54;;;;;;;1.17;1.08;;;17.90;99.90;;;;;;5031997;28;20186;-72
2022/07/13 02:16:19;;;;;;;1.20;1.20;;;17.90;99.90;;;;;;5032289;28;20685;-72
2022/07/13 02:18:45;;;;;;;1.38;1.30;;;17.80;99.90;;;;;;5014264;28;20601;-72
2022/07/13 02:21:12;;;;;;;2.80;1.73;;;17.90;99.90;;;;;;5031354;28;20224;-72
2022/07/13 02:23:38;;;;;;;22.08;8.48;;;17.90;99.90;;;;;;5031813;28;20649;-71
2022/07/13 02:26:04;;;;;;;40.75;14.23;;;17.90;99.90;;;;;;5012868;28;20186;-73
2022/07/13 02:28:30;;;;;;;51.05;17.58;;;17.80;99.90;;;;;;5031843;28;20186;-72
2022/07/13 02:30:55;;;;;;;30.20;11.02;;;17.80;99.90;;;;;;5031360;28;20200;-72
2022/07/13 02:33:21;;;;;;;15.13;6.18;;;17.80;99.90;;;;;;5031906;28;20182;-72
2022/07/13 02:35:46;;;;;;;35.08;11.57;;;17.80;99.90;;;;;;5031168;28;20664;-72
2022/07/13 02:38:12;;;;;;;56.67;20.17;;;17.70;99.90;;;;;;5031247;28;20182;-72
2022/07/13 02:40:37;;;;;;;72.18;23.55;;;17.70;99.90;;;;;;5013891;28;20325;-72
2022/07/13 02:43:03;;;;;;;50.83;20.55;;;17.70;99.90;;;;;;5031949;28;20253;-72
2022/07/13 02:45:29;;;;;;;43.60;18.08;;;17.70;99.90;;;;;;5032085;28;20232;-72
2022/07/13 02:47:54;;;;;;;39.92;17.85;;;17.70;99.90;;;;;;5031364;28;20656;-72
2022/07/13 02:50:20;;;;;;;31.85;13.60;;;17.70;99.90;;;;;;5031322;28;20202;-73
2022/07/13 02:52:45;;;;;;;32.28;15.25;;;17.60;99.90;;;;;;5031061;28;20186;-72
2022/07/13 02:55:11;;;;;;;17.70;8.25;;;17.60;99.90;;;;;;5030663;28;21079;-72
2022/07/13 02:57:37;;;;;;;6.72;3.47;;;17.60;99.90;;;;;;5012837;28;20244;-73
2022/07/13 03:00:05;;;;;;;4.60;3.05;;;17.60;99.90;;;;;;5030646;28;20186;-73
2022/07/13 03:02:30;;;;;;;13.32;6.45;;;17.50;99.90;;;;;;5031211;28;20265;-73
2022/07/13 03:04:56;;;;;;;38.22;16.73;;;17.50;99.90;;;;;;5013204;28;20301;-73
2022/07/13 03:07:21;;;;;;;23.73;10.50;;;17.50;99.90;;;;;;5013750;28;20198;-73
2022/07/13 03:09:47;;;;;;;8.00;4.00;;;17.40;99.90;;;;;;5031793;28;20197;-73
2022/07/13 03:12:12;;;;;;;3.83;2.30;;;17.40;99.90;;;;;;5031226;28;20193;-72
2022/07/13 03:14:38;;;;;;;3.45;2.00;;;17.30;99.90;;;;;;5031171;28;20182;-72
2022/07/13 03:17:03;;;;;;;2.65;1.88;;;17.30;99.90;;;;;;5031265;28;20235;-72
2022/07/13 03:19:30;;;;;;;2.10;1.63;;;17.20;99.90;;;;;;5012882;28;20574;-73
2022/07/13 03:21:55;;;;;;;1.58;1.27;;;17.20;99.90;;;;;;5030616;28;20189;-71
2022/07/13 03:24:21;;;;;;;2.13;1.50;;;17.10;99.90;;;;;;5030302;28;20170;-73
2022/07/13 03:26:46;;;;;;;5.82;1.30;;;17.10;99.90;;;;;;5013603;28;20272;-73
2022/07/13 03:29:12;;;;;;;1.50;1.40;;;17.10;99.90;;;;;;5030909;28;20263;-72
2022/07/13 03:31:37;;;;;;;4.30;1.40;;;17.10;99.90;;;;;;5030940;28;20178;-72
2022/07/13 03:34:03;;;;;;;3.15;1.90;;;17.10;99.90;;;;;;5030407;28;20186;-72
2022/07/13 03:36:30;;;;;;;2.92;2.10;;;17.10;99.90;;;;;;5031007;28;20271;-72
2022/07/13 03:38:56;;;;;;;1.55;1.45;;;17.00;99.90;;;;;;5030620;28;20178;-71
2022/07/13 03:41:22;;;;;;;1.70;1.58;;;17.00;99.90;;;;;;5030555;28;20212;-72
2022/07/13 03:43:47;;;;;;;1.95;1.60;;;16.90;99.90;;;;;;5034878;28;20178;-72
2022/07/13 03:46:13;;;;;;;1.83;1.40;;;16.90;99.90;;;;;;5034561;28;20175;-71
2022/07/13 03:48:38;;;;;;;3.25;1.20;;;16.90;99.90;;;;;;5034786;28;20182;-72
2022/07/13 03:51:04;;;;;;;1.80;1.70;;;16.90;99.90;;;;;;5033986;28;20174;-72
2022/07/13 03:53:29;;;;;;;2.20;1.55;;;16.90;99.90;;;;;;5034730;28;20661;-72
2022/07/13 03:55:55;;;;;;;2.90;1.67;;;16.90;99.90;;;;;;5033572;28;20249;-69
2022/07/13 03:58:20;;;;;;;2.95;1.63;;;16.80;99.90;;;;;;5034856;28;20257;-79
2022/07/13 04:00:46;;;;;;;2.15;1.70;;;16.80;99.90;;;;;;5035091;28;20232;-70
2022/07/13 04:03:12;;;;;;;2.28;1.60;;;16.80;99.90;;;;;;5033538;28;20209;-75
2022/07/13 04:05:37;;;;;;;2.60;1.80;;;16.80;99.90;;;;;;5034452;28;20201;-74
2022/07/13 04:08:03;;;;;;;2.20;1.83;;;16.80;99.90;;;;;;5031273;28;20540;-69
2022/07/13 04:10:28;;;;;;;2.15;1.50;;;16.80;99.90;;;;;;5022287;28;20222;-68
2022/07/13 04:12:54;;;;;;;23.92;8.93;;;16.80;99.90;;;;;;5033397;28;20214;-70
2022/07/13 04:15:19;;;;;;;28.33;10.18;;;16.80;99.90;;;;;;5031593;28;20225;-68
2022/07/13 04:17:45;;;;;;;26.45;8.82;;;16.90;99.90;;;;;;5028553;28;20186;-73
2022/07/13 04:20:11;;;;;;;18.45;7.93;;;16.90;99.90;;;;;;5034576;28;20695;-71
2022/07/13 04:22:37;;;;;;;12.38;5.20;;;16.90;99.90;;;;;;5034082;28;20540;-73
2022/07/13 04:25:04;;;;;;;5.82;2.85;;;16.90;99.90;;;;;;5033605;28;20189;-75
2022/07/13 04:27:30;;;;;;;4.57;2.40;;;16.90;99.90;;;;;;5034088;28;20704;-70
2022/07/13 04:29:55;;;;;;;4.15;2.22;;;17.00;99.90;;;;;;5033915;28;20323;-70
2022/07/13 04:32:21;;;;;;;3.80;2.00;;;17.00;99.90;;;;;;5034354;28;20204;-71
2022/07/13 04:34:47;;;;;;;2.30;2.10;;;17.10;99.90;;;;;;5034076;28;20217;-72
2022/07/13 04:37:13;;;;;;;39.35;23.02;;;17.10;99.90;;;;;;5033735;28;20552;-68
2022/07/13 04:39:41;;;;;;;5.80;3.15;;;17.30;99.90;;;;;;5016499;28;20230;-66
2022/07/13 04:42:07;;;;;;;8.65;3.83;;;17.40;99.90;;;;;;5033722;28;20178;-73
2022/07/13 04:44:32;;;;;;;18.10;8.55;;;17.50;99.90;;;;;;5033789;28;20193;-75
2022/07/13 04:46:58;;;;;;;14.60;7.43;;;17.60;99.90;;;;;;5034180;28;20184;-74
2022/07/13 04:49:24;;;;;;;23.67;10.02;;;17.80;99.90;;;;;;5034043;28;20178;-76
2022/07/13 04:51:53;;;;;;;71.03;29.02;;;17.80;99.90;;;;;;5034240;28;20170;-75
2022/07/13 04:54:19;;;;;;;61.08;26.73;;;17.90;99.90;;;;;;5015942;28;20186;-76
2022/07/13 04:56:45;;;;;;;82.32;32.33;;;17.90;99.90;;;;;;5033890;28;20225;-76
2022/07/13 04:59:12;;;;;;;41.10;17.70;;;17.90;99.90;;;;;;5034027;28;20513;-78
2022/07/13 05:01:38;;;;;;;7.18;4.18;;;18.00;99.90;;;;;;5033847;28;20578;-76
2022/07/13 05:04:04;;;;;;;3.03;2.20;;;18.00;99.90;;;;;;5033932;28;20178;-77
2022/07/13 05:06:30;;;;;;;1.73;1.60;;;18.10;99.90;;;;;;5033878;28;20182;-77
2022/07/13 05:08:56;;;;;;;3.03;1.70;;;18.30;99.90;;;;;;5033980;28;20258;-78
2022/07/13 05:11:21;;;;;;;3.03;1.90;;;18.70;99.90;;;;;;5033769;28;20656;-78
2022/07/13 05:13:47;;;;;;;2.53;1.70;;;19.10;99.90;;;;;;5033585;28;20217;-77
2022/07/13 05:16:12;;;;;;;3.17;1.85;;;19.10;99.90;;;;;;5033695;28;20214;-77
2022/07/13 05:18:38;;;;;;;3.22;1.60;;;19.20;99.90;;;;;;5033901;28;20197;-77
2022/07/13 05:21:04;;;;;;;2.63;1.50;;;19.20;99.90;;;;;;5033764;28;20205;-76
2022/07/13 05:23:29;;;;;;;2.30;1.40;;;19.20;99.90;;;;;;5033275;28;20174;-77
2022/07/13 05:25:55;;;;;;;1.50;1.40;;;19.30;99.90;;;;;;5033597;28;20649;-76
2022/07/13 05:28:21;;;;;;;2.60;1.75;;;19.40;99.90;;;;;;5033443;28;20175;-76
2022/07/13 05:30:46;;;;;;;3.90;1.65;;;19.50;99.90;;;;;;5033399;28;20178;-76
2022/07/13 05:33:14;;;;;;;3.95;1.50;;;19.70;99.90;;;;;;5033353;28;20586;-77
2022/07/13 05:35:40;;;;;;;1.67;1.55;;;19.80;99.90;;;;;;5033234;28;20220;-76
2022/07/13 05:38:06;;;;;;;1.88;1.60;;;20.00;99.90;;;;;;5033270;28;20214;-76
2022/07/13 05:40:31;;;;;;;3.00;1.83;;;20.00;99.90;;;;;;5033094;28;20254;-76
2022/07/13 05:42:57;;;;;;;1.83;1.50;;;20.00;99.90;;;;;;5033279;28;20630;-76
2022/07/13 05:45:22;;;;;;;2.75;1.65;;;20.10;99.90;;;;;;5033142;28;20186;-76
2022/07/13 05:47:48;;;;;;;1.75;1.45;;;20.10;99.90;;;;;;5033005;28;20313;-76
2022/07/13 05:50:14;;;;;;;1.85;1.55;;;20.20;99.90;;;;;;5032938;28;20174;-76
2022/07/13 05:52:41;;;;;;;1.77;1.50;;;20.30;99.90;;;;;;5033118;28;20261;-76
2022/07/13 05:55:08;;;;;;;1.55;1.45;;;20.50;99.90;;;;;;5032852;28;20602;-76
2022/07/13 05:57:34;;;;;;;2.75;1.55;;;20.70;99.90;;;;;;5032896;28;20197;-76
2022/07/13 06:00:00;;;;;;;1.70;1.55;;;20.90;99.90;;;;;;5033002;28;20174;-76
2022/07/13 06:02:25;;;;;;;2.10;1.30;;;21.10;99.90;;;;;;5032640;28;20182;-76
2022/07/13 06:04:51;;;;;;;4.07;1.73;;;21.40;99.90;;;;;;5032036;28;20182;-76
2022/07/13 06:07:16;;;;;;;2.33;1.48;;;21.90;99.90;;;;;;5032715;28;20182;-76
2022/07/13 06:09:42;;;;;;;4.28;1.70;;;23.00;99.90;;;;;;5032783;28;20174;-76
2022/07/13 06:12:07;;;;;;;2.28;1.77;;;24.10;98.40;;;;;;5032421;28;20178;-75
2022/07/13 06:14:33;;;;;;;8.13;4.13;;;24.70;96.20;;;;;;5032782;28;20193;-76
2022/07/13 06:16:58;;;;;;;11.40;3.95;;;24.90;94.90;;;;;;5014861;28;20214;-76
2022/07/13 06:19:24;;;;;;;11.18;3.83;;;25.00;94.20;;;;;;5032336;28;20170;-76
2022/07/13 06:21:49;;;;;;;19.15;6.90;;;25.30;94.30;;;;;;5032611;28;20178;-75
2022/07/13 06:24:15;;;;;;;10.57;4.85;;;26.10;93.70;;;;;;5032398;28;20174;-76
2022/07/13 06:26:41;;;;;;;9.27;2.97;;;27.30;92.00;;;;;;5032559;28;20186;-76
2022/07/13 06:29:06;;;;;;;5.30;3.00;;;28.80;87.30;;;;;;5032406;28;20522;-77
2022/07/13 06:31:32;;;;;;;14.40;4.88;;;30.00;80.90;;;;;;5032309;28;20179;-78
2022/07/13 06:33:58;;;;;;;44.33;15.20;;;30.30;75.80;;;;;;5032386;28;20186;-77
2022/07/13 06:36:23;;;;;;;28.08;9.57;;;30.80;73.10;;;;;;5032078;28;20220;-77
2022/07/13 06:38:49;;;;;;;10.32;5.20;;;31.70;69.90;;;;;;5032309;28;20261;-77
2022/07/13 06:41:16;;;;;;;7.60;1.80;;;32.60;66.10;;;;;;5032119;28;20182;-77
2022/07/13 06:43:41;;;;;;;3.13;1.40;;;33.60;61.80;;;;;;5032170;28;20162;-78
2022/07/13 06:46:08;;;;;;;1.15;1.00;;;34.30;58.40;;;;;;5032020;28;20189;-78
2022/07/13 06:48:35;;;;;;;4.55;1.25;;;34.80;56.40;;;;;;5032212;28;20161;-77
2022/07/13 06:51:01;;;;;;;8.80;1.90;;;34.40;54.50;;;;;;5032162;28;20203;-78
2022/07/13 06:53:26;;;;;;;4.78;1.85;;;34.10;54.70;;;;;;5031938;28;20181;-77
2022/07/13 06:55:52;;;;;;;3.90;1.35;;;33.90;55.10;;;;;;5032101;28;20332;-78
2022/07/13 06:58:18;;;;;;;1.20;1.10;;;34.30;55.00;;;;;;5031942;28;20209;-78
2022/07/13 07:00:43;;;;;;;3.53;1.20;;;35.20;53.60;;;;;;5031850;28;20188;-78
2022/07/13 07:03:09;;;;;;;2.25;1.13;;;35.30;52.40;;;;;;5031893;28;20177;-78
2022/07/13 07:05:34;;;;;;;2.78;1.00;;;35.00;51.70;;;;;;5032197;28;20169;-78
2022/07/13 07:08:02;;;;;;;2.05;1.42;;;34.50;52.40;;;;;;5032004;28;20691;-78
2022/07/13 07:10:28;;;;;;;1.55;1.10;;;34.30;52.70;;;;;;5031701;28;20189;-77
2022/07/13 07:12:53;;;;;;;3.97;1.30;;;34.00;52.90;;;;;;5031802;28;20181;-77
2022/07/13 07:15:19;;;;;;;1.40;1.10;;;33.60;53.80;;;;;;5031677;28;20201;-78
2022/07/13 07:17:46;;;;;;;2.13;1.08;;;33.10;54.70;;;;;;5031664;28;20192;-78
2022/07/13 07:20:12;;;;;;;1.73;1.10;;;32.70;55.00;;;;;;5031634;28;20174;-78
2022/07/13 07:22:37;;;;;;;3.70;1.30;;;32.30;55.50;;;;;;5031845;28;20224;-78
2022/07/13 07:25:03;;;;;;;3.75;1.23;;;31.90;56.30;;;;;;5031835;28;20186;-79
2022/07/13 07:27:28;;;;;;;4.43;1.40;;;31.60;56.50;;;;;;5031679;28;20648;-78
2022/07/13 07:29:54;;;;;;;5.68;1.80;;;31.60;58.00;;;;;;5031810;28;20181;-79
2022/07/13 07:32:21;;;;;;;5.18;1.38;;;32.20;58.30;;;;;;5031676;28;20644;-79
2022/07/13 07:34:46;;;;;;;5.13;2.60;;;33.00;57.00;;;;;;5031553;28;20190;-78
2022/07/13 07:37:12;;;;;;;6.38;2.03;;;33.70;55.50;;;;;;5031598;28;20312;-80
2022/07/13 07:39:37;;;;;;;4.97;1.83;;;34.30;54.90;;;;;;5031398;28;20676;-80
2022/07/13 07:42:06;;;;;;;5.50;3.20;;;34.50;53.50;;;;;;5031572;28;20197;-79
2022/07/13 07:44:32;;;;;;;6.65;1.80;;;34.50;52.50;;;;;;5031520;28;20629;-79
2022/07/13 07:46:58;;;;;;;1.33;1.00;;;34.40;51.80;;;;;;5031338;28;20178;-77
2022/07/13 07:49:23;;;;;;;1.05;0.95;;;34.30;51.80;;;;;;5031274;28;20200;-80
2022/07/13 07:51:48;;;;;;;2.90;1.52;;;34.20;52.30;;;;;;5031528;28;20692;-79
2022/07/13 07:54:14;;;;;;;11.52;3.55;;;34.10;51.30;;;;;;5013752;28;20281;-79
2022/07/13 07:56:40;;;;;;;8.45;3.13;;;34.00;51.90;;;;;;5031393;28;20217;-78
2022/07/13 07:59:05;;;;;;;1.45;0.88;;;33.90;52.10;;;;;;5031352;28;20170;-79
2022/07/13 08:01:31;;;;;;;3.33;1.20;;;33.90;51.20;;;;;;5031357;28;20195;-78
2022/07/13 08:03:56;;;;;;;2.92;2.08;;;33.90;51.20;;;;;;5031481;28;20173;-78
2022/07/13 08:06:22;;;;;;;1.52;1.20;;;34.10;51.70;;;;;;5031271;28;20708;-78
2022/07/13 08:08:47;;;;;;;3.75;2.22;;;34.40;51.40;;;;;;5031251;28;20186;-79
2022/07/13 08:11:17;;;;;;;4.60;1.40;;;34.70;51.40;;;;;;5031320;28;20176;-78
2022/07/13 08:13:46;;;;;;;6.88;4.00;;;34.70;50.30;;;;;;5031294;28;20205;-77
2022/07/13 08:16:16;;;;;;;6.30;4.70;;;34.90;49.70;;;;;;5031112;28;20711;-79
2022/07/13 08:18:42;;;;;;;3.08;2.60;;;35.00;49.60;;;;;;5031261;28;20184;-79
2022/07/13 08:21:08;;;;;;;5.43;1.20;;;35.10;49.50;;;;;;5031176;28;20197;-78
2022/07/13 08:23:52;;;;;;;1.75;1.20;;;34.90;48.80;;;;;;5031252;28;20170;-78
2022/07/13 08:26:28;;;;;;;3.80;1.38;;;35.10;50.30;;;;;;5031170;28;20542;-77
2022/07/13 08:28:55;;;;;;;0.82;0.80;;;35.50;47.00;;;;;;5015487;28;20512;-77
2022/07/13 08:31:22;;;;;;;0.68;0.68;;;35.20;46.50;;;;;;5034770;28;20652;-77
2022/07/13 08:39:17;;;;;;;2.65;0.82;;;35.30;45.40;;;;;;5034652;28;20289;-77
2022/07/13 08:41:43;;;;;;;0.57;0.57;;;35.80;46.90;;;;;;5034599;28;21184;-77
2022/07/13 08:44:08;;;;;;;3.92;0.70;;;36.10;44.40;;;;;;5034353;28;20181;-76
2022/07/13 08:46:34;;;;;;;1.30;0.75;;;36.50;43.60;;;;;;5034294;28;20185;-78
2022/07/13 08:49:00;;;;;;;0.75;0.75;;;36.30;43.40;;;;;;5034455;28;20177;-76
2022/07/13 08:51:26;;;;;;;2.17;0.90;;;36.30;43.10;;;;;;5034046;28;20659;-76
2022/07/13 08:53:54;;;;;;;4.13;0.80;;;36.60;43.90;;;;;;5034453;28;20182;-77
2022/07/13 08:56:20;;;;;;;2.97;0.75;;;36.60;42.10;;;;;;5034119;28;20307;-76
2022/07/13 08:58:45;;;;;;;9.45;0.88;;;36.70;41.70;;;;;;5034142;28;20265;-76
2022/07/13 09:01:11;;;;;;;0.95;0.70;;;36.80;41.80;;;;;;5034079;28;20575;-76
2022/07/13 09:03:38;;;;;;;2.80;0.80;;;36.70;41.70;;;;;;5034149;28;20224;-76
2022/07/13 09:06:04;;;;;;;4.85;0.95;;;36.70;41.10;;;;;;5034043;28;20184;-77
2022/07/13 09:08:31;;;;;;;1.42;0.98;;;36.40;39.70;;;;;;5033957;28;20182;-76
2022/07/13 09:10:59;;;;;;;0.85;0.50;;;36.00;41.20;;;;;;5033976;28;20208;-76
2022/07/13 09:13:44;;;;;;;0.70;0.70;;;35.70;41.10;;;;;;5033843;28;20209;-76
2022/07/13 09:16:23;;;;;;;1.00;0.73;;;35.60;40.50;;;;;;5033267;28;20749;-77
2022/07/13 09:18:52;;;;;;;0.80;0.80;;;35.70;40.30;;;;;;5033948;28;20192;-77
2022/07/13 09:21:19;;;;;;;0.63;0.63;;;35.90;41.30;;;;;;5033582;28;20177;-76
2022/07/13 09:23:47;;;;;;;2.90;1.00;;;36.00;40.60;;;;;;5033681;28;20186;-75
2022/07/13 09:26:13;;;;;;;0.60;0.60;;;36.20;41.10;;;;;;5033790;28;20215;-76
2022/07/13 09:28:44;;;;;;;0.73;0.73;;;36.10;40.00;;;;;;5033555;28;20181;-77
2022/07/13 09:31:11;;;;;;;16.20;1.38;;;36.00;39.20;;;;;;5033573;28;20517;-77
2022/07/13 09:33:38;;;;;;;9.73;1.17;;;36.10;38.90;;;;;;5033423;28;20563;-77
2022/07/13 09:36:24;;;;;;;1.38;0.70;;;36.20;39.70;;;;;;5033257;28;20363;-76
2022/07/13 09:38:53;;;;;;;0.70;0.70;;;36.00;37.90;;;;;;5033051;28;20177;-75
2022/07/13 09:41:25;;;;;;;5.15;0.70;;;35.80;38.30;;;;;;5032690;28;20521;-76
2022/07/13 09:47:09;;;;;;;1.23;0.77;;;36.30;38.60;;;;;;5033608;28;20235;-76
2022/07/13 09:49:42;;;;;;;1.60;0.80;;;36.30;38.80;;;;;;5016078;28;20672;-75
2022/07/13 09:52:17;;;;;;;4.75;0.60;;;36.60;39.20;;;;;;5015378;28;20197;-76
2022/07/13 09:54:47;;;;;;;2.60;0.70;;;36.80;35.50;;;;;;5015741;28;20730;-77
2022/07/13 09:57:14;;;;;;;0.70;0.63;;;37.10;36.10;;;;;;5032961;28;20737;-77
2022/07/13 09:59:44;;;;;;;0.85;0.60;;;37.00;37.30;;;;;;5032983;28;20173;-75
2022/07/13 10:02:10;;;;;;;2.72;0.80;;;36.90;35.20;;;;;;5033008;28;20268;-77
2022/07/13 10:04:36;;;;;;;1.75;0.60;;;36.90;35.40;;;;;;5032958;28;20172;-77
2022/07/13 10:07:08;;;;;;;1.02;0.47;;;37.20;37.20;;;;;;5032936;28;20536;-77
2022/07/13 10:09:37;;;;;;;1.90;0.70;;;37.10;36.00;;;;;;5032873;28;20326;-78
2022/07/13 10:12:09;;;;;;;2.42;1.05;;;36.90;37.80;;;;;;5032762;28;20181;-77
2022/07/13 10:14:36;;;;;;;1.95;0.70;;;36.70;37.20;;;;;;5032653;28;20842;-76
2022/07/13 10:17:14;;;;;;;4.18;0.85;;;36.60;37.70;;;;;;5032737;28;20676;-76
2022/07/13 10:19:57;;;;;;;0.75;0.75;;;36.70;38.30;;;;;;5032899;28;20533;-76
2022/07/13 10:22:26;;;;;;;1.23;0.55;;;36.60;39.00;;;;;;5012913;28;20177;-75
2022/07/13 10:24:57;;;;;;;0.90;0.77;;;36.60;40.40;;;;;;5012939;28;20589;-76
2022/07/13 10:27:32;;;;;;;0.82;0.82;;;36.80;38.70;;;;;;5013009;28;20547;-76
2022/07/13 10:30:05;;;;;;;4.30;0.80;;;36.60;38.40;;;;;;4983969;28;20178;-77
2022/07/13 10:32:35;;;;;;;2.70;0.70;;;36.30;38.50;;;;;;5012788;28;20227;-76
2022/07/13 10:35:01;;;;;;;1.20;0.73;;;35.70;38.80;;;;;;5012747;28;20186;-76
2022/07/13 10:37:27;;;;;;;2.35;1.05;;;35.60;40.40;;;;;;5012475;28;20198;-76
2022/07/13 10:40:12;;;;;;;1.33;1.00;;;35.90;40.80;;;;;;5012532;28;20222;-76
2022/07/13 10:42:53;;;;;;;1.52;0.88;;;36.10;38.40;;;;;;5012694;28;20170;-76
2022/07/13 10:45:34;;;;;;;0.80;0.60;;;36.10;38.20;;;;;;5012456;28;20649;-78
2022/07/13 10:48:04;;;;;;;1.80;0.88;;;36.10;39.20;;;;;;5028762;28;20223;-76
2022/07/13 10:50:36;;;;;;;1.20;0.60;;;36.10;38.30;;;;;;5013975;28;20178;-77
2022/07/13 10:53:02;;;;;;;2.20;0.82;;;36.20;38.70;;;;;;5014498;28;20189;-78
2022/07/13 10:55:30;;;;;;;1.02;0.60;;;36.50;37.00;;;;;;5031797;28;20201;-77
2022/07/13 10:57:56;;;;;;;0.60;0.60;;;36.70;37.20;;;;;;5032000;28;20652;-77
2022/07/13 11:00:43;;;;;;;0.60;0.60;;;37.00;37.40;;;;;;5031955;28;20185;-78
2022/07/13 11:03:37;;;;;;;0.85;0.40;;;37.30;35.30;;;;;;5031999;28;20177;-77
2022/07/13 11:06:04;;;;;;;0.65;0.65;;;37.80;36.70;;;;;;5031814;28;20177;-77
2022/07/13 11:08:30;;;;;;;0.70;0.70;;;38.20;35.40;;;;;;5031902;28;20192;-76
2022/07/13 11:11:29;;;;;;;1.00;0.88;;;38.50;34.90;;;;;;5031796;28;20526;-77
2022/07/13 11:13:54;;;;;;;2.15;0.80;;;38.50;34.80;;;;;;4988533;28;20587;-76
2022/07/13 11:16:45;;;;;;;0.95;0.77;;;38.40;34.10;;;;;;5031605;28;20213;-75
2022/07/13 11:19:10;;;;;;;1.20;0.90;;;38.40;34.80;;;;;;5031756;28;20173;-77
2022/07/13 11:22:16;;;;;;;1.90;0.60;;;38.30;34.70;;;;;;5031789;28;20253;-76
2022/07/13 11:27:43;;;;;;;6.35;1.10;;;38.20;36.90;;;;;;5032059;28;20538;-75
2022/07/13 11:30:12;;;;;;;2.25;0.90;;;38.70;37.30;;;;;;5031807;28;20746;-76
2022/07/13 11:32:38;;;;;;;1.25;0.77;;;39.20;36.50;;;;;;5031867;28;20200;-77
2022/07/13 11:35:04;;;;;;;0.80;0.80;;;39.60;34.80;;;;;;5031555;28;20533;-77
2022/07/13 11:37:29;;;;;;;1.30;0.88;;;39.70;33.60;;;;;;5031433;28;20185;-76
2022/07/13 11:39:55;;;;;;;0.88;0.80;;;39.70;35.50;;;;;;5031455;28;20226;-76
2022/07/13 11:42:23;;;;;;;1.27;0.80;;;39.00;35.20;;;;;;5031659;28;20173;-76
2022/07/13 11:44:52;;;;;;;1.95;0.80;;;38.90;36.00;;;;;;5031697;28;20260;-75
2022/07/13 11:47:18;;;;;;;0.90;0.90;;;39.00;35.00;;;;;;5031415;28;20181;-75
2022/07/13 11:49:48;;;;;;;1.77;0.70;;;38.90;36.90;;;;;;5031426;28;20531;-76
2022/07/13 11:52:18;;;;;;;1.38;0.80;;;38.80;35.10;;;;;;5031464;28;20221;-75
2022/07/13 11:54:55;;;;;;;0.82;0.60;;;38.80;33.70;;;;;;5031548;28;20174;-76
2022/07/13 11:57:20;;;;;;;1.38;1.00;;;38.60;34.00;;;;;;5031351;28;20235;-76
2022/07/13 11:59:46;;;;;;;0.80;0.73;;;38.50;35.40;;;;;;5031532;28;20178;-75
2022/07/13 12:02:14;;;;;;;1.05;0.65;;;38.50;34.40;;;;;;5031416;28;20239;-75
2022/07/13 12:04:41;;;;;;;1.20;0.80;;;38.70;34.90;;;;;;5034914;28;20582;-77
2022/07/13 12:07:18;;;;;;;3.65;0.95;;;38.80;36.10;;;;;;5035095;28;20181;-77
2022/07/13 12:10:03;;;;;;;0.68;0.68;;;38.60;35.70;;;;;;5035173;28;20648;-76
2022/07/13 12:12:34;;;;;;;1.63;0.90;;;38.60;35.60;;;;;;5034976;28;20181;-76
2022/07/13 12:15:00;;;;;;;4.10;0.90;;;38.70;35.10;;;;;;5034887;28;20268;-78
2022/07/13 12:17:28;;;;;;;0.85;0.75;;;38.70;35.40;;;;;;5034781;28;20269;-78
2022/07/13 12:20:09;;;;;;;0.65;0.65;;;38.50;35.10;;;;;;5034865;28;20548;-76
2022/07/13 12:22:36;;;;;;;1.55;0.80;;;38.40;36.40;;;;;;5034856;28;20199;-75
2022/07/13 12:25:03;;;;;;;0.80;0.80;;;38.00;34.00;;;;;;5034963;28;20327;-75
2022/07/13 12:27:29;;;;;;;0.95;0.82;;;38.10;36.20;;;;;;5034790;28;20170;-77
2022/07/13 12:30:08;;;;;;;1.17;0.80;;;38.20;35.00;;;;;;5034793;28;20644;-77
2022/07/13 12:32:55;;;;;;;1.10;0.90;;;38.30;35.10;;;;;;5034613;28;20192;-76
2022/07/13 12:35:20;;;;;;;2.95;0.98;;;38.30;35.00;;;;;;5034517;28;20208;-75
2022/07/13 12:37:51;;;;;;;1.55;0.77;;;38.20;35.20;;;;;;5034685;28;20185;-75
2022/07/13 12:40:43;;;;;;;0.70;0.70;;;38.00;34.50;;;;;;5034502;28;20225;-75
2022/07/13 12:43:20;;;;;;;0.50;0.50;;;37.60;33.40;;;;;;5034384;28;20178;-75
2022/07/13 12:45:47;;;;;;;0.70;0.40;;;37.10;33.40;;;;;;5034549;28;20192;-76
2022/07/13 12:48:14;;;;;;;0.60;0.60;;;36.80;32.00;;;;;;5034366;28;20660;-77
2022/07/13 12:50:40;;;;;;;1.80;0.60;;;36.50;31.80;;;;;;5034375;28;20181;-74
2022/07/13 12:53:06;;;;;;;0.47;0.47;;;36.40;34.00;;;;;;5034372;28;20176;-76
2022/07/13 12:55:50;;;;;;;1.20;0.70;;;36.30;35.00;;;;;;5034145;28;20589;-76
2022/07/13 12:58:16;;;;;;;0.50;0.50;;;36.20;35.00;;;;;;5034316;28;20269;-77
2022/07/13 13:00:42;;;;;;;1.13;0.50;;;36.20;34.80;;;;;;5034234;28;20552;-77